sensor_id;sensor_type;location;lat;lon;timestamp;P1;durP1;ratioP1;P2;durP2;ratioP2
7587;SDS011;3835;48.850;8.938;2022-10-17T00:00:03;14.73;;;14.03;;
7587;SDS011;3835;48.850;8.938;2022-10-17T00:02:31;14.83;;;14.00;;
7587;SDS011;3835;48.850;8.938;2022-10-17T00:04:58;15.43;;;14.80;;
7587;SDS011;3835;48.850;8.938;2022-10-17T00:07:25;15.33;;;14.63;;
7587;SDS011;3835;48.850;8.938;2022-10-17T00:09:52;14.53;;;13.63;;
7587;SDS011;3835;48.850;8.938;2022-10-17T00:12:19;14.63;;;14.00;;
7587;SDS011;3835;48.850;8.938;2022-10-17T00:14:45;15.87;;;15.17;;
7587;SDS011;3835;48.850;8.938;2022-10-17T00:17:13;14.63;;;13.73;;
7587;SDS011;3835;48.850;8.938;2022-10-17T00:19:40;12.60;;;12.00;;
7587;SDS011;3835;48.850;8.938;2022-10-17T00:22:07;11.87;;;11.37;;
7587;SDS011;3835;48.850;8.938;2022-10-17T00:24:34;16.70;;;15.90;;
7587;SDS011;3835;48.850;8.938;2022-10-17T00:27:01;14.43;;;13.73;;
7587;SDS011;3835;48.850;8.938;2022-10-17T00:29:28;14.53;;;13.83;;
7587;SDS011;3835;48.850;8.938;2022-10-17T00:31:55;13.43;;;12.83;;
7587;SDS011;3835;48.850;8.938;2022-10-17T00:34:24;12.33;;;11.33;;
7587;SDS011;3835;48.850;8.938;2022-10-17T00:36:51;15.07;;;14.27;;
7587;SDS011;3835;48.850;8.938;2022-10-17T00:39:17;13.43;;;12.73;;
7587;SDS011;3835;48.850;8.938;2022-10-17T00:41:44;15.40;;;14.40;;
7587;SDS011;3835;48.850;8.938;2022-10-17T00:47:16;13.10;;;12.40;;
7587;SDS011;3835;48.850;8.938;2022-10-17T00:49:47;12.50;;;11.73;;
7587;SDS011;3835;48.850;8.938;2022-10-17T00:52:14;12.67;;;11.97;;
7587;SDS011;3835;48.850;8.938;2022-10-17T00:54:46;13.53;;;12.93;;
7587;SDS011;3835;48.850;8.938;2022-10-17T00:57:15;12.60;;;11.80;;
7587;SDS011;3835;48.850;8.938;2022-10-17T00:59:42;12.20;;;11.70;;
7587;SDS011;3835;48.850;8.938;2022-10-17T01:02:15;14.17;;;13.50;;
7587;SDS011;3835;48.850;8.938;2022-10-17T01:04:44;13.23;;;12.53;;
7587;SDS011;3835;48.850;8.938;2022-10-17T01:07:14;12.87;;;12.17;;
7587;SDS011;3835;48.850;8.938;2022-10-17T01:09:41;12.67;;;11.97;;
7587;SDS011;3835;48.850;8.938;2022-10-17T01:12:11;12.50;;;11.90;;
7587;SDS011;3835;48.850;8.938;2022-10-17T01:14:46;13.03;;;12.33;;
7587;SDS011;3835;48.850;8.938;2022-10-17T01:17:23;13.80;;;12.80;;
7587;SDS011;3835;48.850;8.938;2022-10-17T01:19:58;11.67;;;10.97;;
7587;SDS011;3835;48.850;8.938;2022-10-17T01:22:50;13.13;;;12.53;;
7587;SDS011;3835;48.850;8.938;2022-10-17T01:25:26;11.37;;;10.67;;
7587;SDS011;3835;48.850;8.938;2022-10-17T01:28:09;13.00;;;12.30;;
7587;SDS011;3835;48.850;8.938;2022-10-17T01:30:55;13.40;;;12.80;;
7587;SDS011;3835;48.850;8.938;2022-10-17T01:33:31;12.20;;;11.60;;
7587;SDS011;3835;48.850;8.938;2022-10-17T01:36:08;13.50;;;12.90;;
7587;SDS011;3835;48.850;8.938;2022-10-17T01:38:40;12.90;;;12.30;;
7587;SDS011;3835;48.850;8.938;2022-10-17T01:41:13;13.17;;;12.27;;
7587;SDS011;3835;48.850;8.938;2022-10-17T01:43:50;13.53;;;12.73;;
7587;SDS011;3835;48.850;8.938;2022-10-17T01:46:23;13.13;;;12.53;;
7587;SDS011;3835;48.850;8.938;2022-10-17T01:48:53;13.07;;;12.37;;
7587;SDS011;3835;48.850;8.938;2022-10-17T01:51:23;13.40;;;12.80;;
7587;SDS011;3835;48.850;8.938;2022-10-17T01:53:56;12.53;;;11.83;;
7587;SDS011;3835;48.850;8.938;2022-10-17T01:56:27;13.43;;;12.73;;
7587;SDS011;3835;48.850;8.938;2022-10-17T01:58:59;12.37;;;11.80;;
7587;SDS011;3835;48.850;8.938;2022-10-17T02:01:31;13.50;;;12.80;;
7587;SDS011;3835;48.850;8.938;2022-10-17T02:04:02;14.43;;;13.73;;
7587;SDS011;3835;48.850;8.938;2022-10-17T02:06:33;12.93;;;12.33;;
7587;SDS011;3835;48.850;8.938;2022-10-17T02:09:00;12.60;;;12.00;;
7587;SDS011;3835;48.850;8.938;2022-10-17T02:11:27;14.00;;;13.07;;
7587;SDS011;3835;48.850;8.938;2022-10-17T02:14:03;13.77;;;13.07;;
7587;SDS011;3835;48.850;8.938;2022-10-17T02:16:45;13.43;;;12.50;;
7587;SDS011;3835;48.850;8.938;2022-10-17T02:19:29;12.30;;;11.23;;
7587;SDS011;3835;48.850;8.938;2022-10-17T02:22:06;14.80;;;13.90;;
7587;SDS011;3835;48.850;8.938;2022-10-17T02:24:44;14.63;;;13.93;;
7587;SDS011;3835;48.850;8.938;2022-10-17T02:27:16;15.10;;;14.37;;
7587;SDS011;3835;48.850;8.938;2022-10-17T02:29:52;13.97;;;13.27;;
7587;SDS011;3835;48.850;8.938;2022-10-17T02:32:27;13.87;;;13.17;;
7587;SDS011;3835;48.850;8.938;2022-10-17T02:35:00;14.27;;;13.47;;
7587;SDS011;3835;48.850;8.938;2022-10-17T02:37:30;14.27;;;13.57;;
7587;SDS011;3835;48.850;8.938;2022-10-17T02:39:59;12.93;;;12.23;;
7587;SDS011;3835;48.850;8.938;2022-10-17T02:42:27;13.43;;;12.67;;
7587;SDS011;3835;48.850;8.938;2022-10-17T02:44:54;14.23;;;13.53;;
7587;SDS011;3835;48.850;8.938;2022-10-17T02:47:30;13.87;;;13.17;;
7587;SDS011;3835;48.850;8.938;2022-10-17T02:49:59;14.37;;;13.43;;
7587;SDS011;3835;48.850;8.938;2022-10-17T02:52:27;14.83;;;14.13;;
7587;SDS011;3835;48.850;8.938;2022-10-17T02:55:00;14.13;;;13.33;;
7587;SDS011;3835;48.850;8.938;2022-10-17T02:57:33;13.03;;;12.33;;
7587;SDS011;3835;48.850;8.938;2022-10-17T03:00:03;13.17;;;12.27;;
7587;SDS011;3835;48.850;8.938;2022-10-17T03:05:17;12.47;;;11.87;;
7587;SDS011;3835;48.850;8.938;2022-10-17T03:07:45;13.63;;;13.03;;
7587;SDS011;3835;48.850;8.938;2022-10-17T03:10:12;12.93;;;12.17;;
7587;SDS011;3835;48.850;8.938;2022-10-17T03:12:39;13.83;;;13.13;;
7587;SDS011;3835;48.850;8.938;2022-10-17T03:15:06;13.10;;;12.40;;
7587;SDS011;3835;48.850;8.938;2022-10-17T03:17:33;13.50;;;12.80;;
7587;SDS011;3835;48.850;8.938;2022-10-17T03:20:00;15.90;;;15.17;;
7587;SDS011;3835;48.850;8.938;2022-10-17T03:22:29;13.50;;;12.80;;
7587;SDS011;3835;48.850;8.938;2022-10-17T03:24:56;13.20;;;12.50;;
7587;SDS011;3835;48.850;8.938;2022-10-17T03:27:23;14.30;;;13.53;;
7587;SDS011;3835;48.850;8.938;2022-10-17T03:29:49;16.10;;;15.13;;
7587;SDS011;3835;48.850;8.938;2022-10-17T03:32:16;14.37;;;13.67;;
7587;SDS011;3835;48.850;8.938;2022-10-17T03:34:43;14.10;;;13.37;;
7587;SDS011;3835;48.850;8.938;2022-10-17T03:37:10;14.13;;;13.20;;
7587;SDS011;3835;48.850;8.938;2022-10-17T03:39:38;14.73;;;14.03;;
7587;SDS011;3835;48.850;8.938;2022-10-17T03:42:05;16.30;;;15.27;;
7587;SDS011;3835;48.850;8.938;2022-10-17T03:44:33;12.97;;;12.27;;
7587;SDS011;3835;48.850;8.938;2022-10-17T03:47:00;13.30;;;12.60;;
7587;SDS011;3835;48.850;8.938;2022-10-17T03:49:26;14.40;;;13.70;;
7587;SDS011;3835;48.850;8.938;2022-10-17T03:51:53;15.83;;;15.03;;
7587;SDS011;3835;48.850;8.938;2022-10-17T03:54:20;17.07;;;16.10;;
7587;SDS011;3835;48.850;8.938;2022-10-17T03:56:48;15.73;;;14.73;;
7587;SDS011;3835;48.850;8.938;2022-10-17T03:59:15;13.67;;;12.93;;
7587;SDS011;3835;48.850;8.938;2022-10-17T04:01:42;13.97;;;13.27;;
7587;SDS011;3835;48.850;8.938;2022-10-17T04:04:09;13.40;;;12.77;;
7587;SDS011;3835;48.850;8.938;2022-10-17T04:06:36;14.43;;;13.73;;
7587;SDS011;3835;48.850;8.938;2022-10-17T04:09:03;13.83;;;13.13;;
7587;SDS011;3835;48.850;8.938;2022-10-17T04:11:31;13.70;;;13.07;;
7587;SDS011;3835;48.850;8.938;2022-10-17T04:13:59;13.37;;;12.70;;
7587;SDS011;3835;48.850;8.938;2022-10-17T04:16:26;12.83;;;12.23;;
7587;SDS011;3835;48.850;8.938;2022-10-17T04:18:53;12.67;;;11.97;;
7587;SDS011;3835;48.850;8.938;2022-10-17T04:21:21;14.63;;;13.90;;
7587;SDS011;3835;48.850;8.938;2022-10-17T04:23:51;15.33;;;14.37;;
7587;SDS011;3835;48.850;8.938;2022-10-17T04:26:19;14.57;;;13.73;;
7587;SDS011;3835;48.850;8.938;2022-10-17T04:28:45;15.43;;;14.10;;
7587;SDS011;3835;48.850;8.938;2022-10-17T04:31:14;14.67;;;13.97;;
7587;SDS011;3835;48.850;8.938;2022-10-17T04:33:42;17.10;;;15.80;;
7587;SDS011;3835;48.850;8.938;2022-10-17T04:36:12;14.60;;;13.90;;
7587;SDS011;3835;48.850;8.938;2022-10-17T04:38:40;14.63;;;13.93;;
7587;SDS011;3835;48.850;8.938;2022-10-17T04:41:10;13.60;;;12.90;;
7587;SDS011;3835;48.850;8.938;2022-10-17T04:43:37;13.93;;;13.20;;
7587;SDS011;3835;48.850;8.938;2022-10-17T04:46:06;13.27;;;12.53;;
7587;SDS011;3835;48.850;8.938;2022-10-17T04:48:34;13.47;;;12.67;;
7587;SDS011;3835;48.850;8.938;2022-10-17T04:51:02;12.80;;;12.20;;
7587;SDS011;3835;48.850;8.938;2022-10-17T04:53:31;13.03;;;12.07;;
7587;SDS011;3835;48.850;8.938;2022-10-17T04:55:59;12.80;;;12.20;;
7587;SDS011;3835;48.850;8.938;2022-10-17T04:58:27;13.27;;;12.67;;
7587;SDS011;3835;48.850;8.938;2022-10-17T05:00:54;14.30;;;13.53;;
7587;SDS011;3835;48.850;8.938;2022-10-17T05:03:21;13.30;;;12.53;;
7587;SDS011;3835;48.850;8.938;2022-10-17T05:05:49;13.43;;;12.70;;
7587;SDS011;3835;48.850;8.938;2022-10-17T05:08:16;12.87;;;12.27;;
7587;SDS011;3835;48.850;8.938;2022-10-17T05:10:43;13.57;;;12.67;;
7587;SDS011;3835;48.850;8.938;2022-10-17T05:13:11;14.73;;;12.57;;
7587;SDS011;3835;48.850;8.938;2022-10-17T05:15:37;13.83;;;13.13;;
7587;SDS011;3835;48.850;8.938;2022-10-17T05:18:05;13.37;;;12.77;;
7587;SDS011;3835;48.850;8.938;2022-10-17T05:20:32;13.47;;;12.80;;
7587;SDS011;3835;48.850;8.938;2022-10-17T05:23:00;12.27;;;11.47;;
7587;SDS011;3835;48.850;8.938;2022-10-17T05:25:27;13.33;;;12.57;;
7587;SDS011;3835;48.850;8.938;2022-10-17T05:27:54;12.67;;;12.07;;
7587;SDS011;3835;48.850;8.938;2022-10-17T05:30:21;14.67;;;13.47;;
7587;SDS011;3835;48.850;8.938;2022-10-17T05:32:50;13.37;;;12.57;;
7587;SDS011;3835;48.850;8.938;2022-10-17T05:35:17;12.73;;;12.13;;
7587;SDS011;3835;48.850;8.938;2022-10-17T05:37:44;13.40;;;12.60;;
7587;SDS011;3835;48.850;8.938;2022-10-17T05:40:12;13.57;;;12.67;;
7587;SDS011;3835;48.850;8.938;2022-10-17T05:42:39;14.33;;;13.20;;
7587;SDS011;3835;48.850;8.938;2022-10-17T05:45:11;12.73;;;11.93;;
7587;SDS011;3835;48.850;8.938;2022-10-17T05:47:38;13.97;;;12.83;;
7587;SDS011;3835;48.850;8.938;2022-10-17T05:50:05;12.77;;;11.87;;
7587;SDS011;3835;48.850;8.938;2022-10-17T05:52:33;14.73;;;13.57;;
7587;SDS011;3835;48.850;8.938;2022-10-17T05:54:59;13.73;;;12.93;;
7587;SDS011;3835;48.850;8.938;2022-10-17T05:57:27;14.00;;;13.30;;
7587;SDS011;3835;48.850;8.938;2022-10-17T05:59:54;14.20;;;13.50;;
7587;SDS011;3835;48.850;8.938;2022-10-17T06:02:21;15.17;;;13.67;;
7587;SDS011;3835;48.850;8.938;2022-10-17T06:04:48;12.83;;;12.23;;
7587;SDS011;3835;48.850;8.938;2022-10-17T06:07:15;12.77;;;12.17;;
7587;SDS011;3835;48.850;8.938;2022-10-17T06:09:41;12.83;;;12.23;;
7587;SDS011;3835;48.850;8.938;2022-10-17T06:12:08;11.77;;;11.10;;
7587;SDS011;3835;48.850;8.938;2022-10-17T06:14:36;12.70;;;11.80;;
7587;SDS011;3835;48.850;8.938;2022-10-17T06:17:03;12.20;;;11.60;;
7587;SDS011;3835;48.850;8.938;2022-10-17T06:19:30;13.57;;;12.60;;
7587;SDS011;3835;48.850;8.938;2022-10-17T06:21:57;13.87;;;13.17;;
7587;SDS011;3835;48.850;8.938;2022-10-17T06:24:23;13.43;;;12.40;;
7587;SDS011;3835;48.850;8.938;2022-10-17T06:26:50;13.27;;;12.57;;
7587;SDS011;3835;48.850;8.938;2022-10-17T06:29:17;12.53;;;11.93;;
7587;SDS011;3835;48.850;8.938;2022-10-17T06:31:45;12.83;;;12.03;;
7587;SDS011;3835;48.850;8.938;2022-10-17T06:34:12;13.63;;;12.93;;
7587;SDS011;3835;48.850;8.938;2022-10-17T06:36:39;15.27;;;14.10;;
7587;SDS011;3835;48.850;8.938;2022-10-17T06:39:05;12.97;;;12.20;;
7587;SDS011;3835;48.850;8.938;2022-10-17T06:41:32;11.83;;;11.30;;
7587;SDS011;3835;48.850;8.938;2022-10-17T06:43:59;14.37;;;13.13;;
7587;SDS011;3835;48.850;8.938;2022-10-17T06:46:30;18.40;;;17.27;;
7587;SDS011;3835;48.850;8.938;2022-10-17T06:48:58;15.10;;;14.13;;
7587;SDS011;3835;48.850;8.938;2022-10-17T06:51:25;17.83;;;17.03;;
7587;SDS011;3835;48.850;8.938;2022-10-17T06:53:51;14.50;;;13.80;;
7587;SDS011;3835;48.850;8.938;2022-10-17T06:56:18;18.57;;;17.60;;
7587;SDS011;3835;48.850;8.938;2022-10-17T06:58:45;18.10;;;17.30;;
7587;SDS011;3835;48.850;8.938;2022-10-17T07:01:13;14.13;;;12.90;;
7587;SDS011;3835;48.850;8.938;2022-10-17T07:03:40;16.40;;;15.50;;
7587;SDS011;3835;48.850;8.938;2022-10-17T07:06:09;18.43;;;17.63;;
7587;SDS011;3835;48.850;8.938;2022-10-17T07:08:35;20.00;;;18.97;;
7587;SDS011;3835;48.850;8.938;2022-10-17T07:11:09;17.03;;;16.23;;
7587;SDS011;3835;48.850;8.938;2022-10-17T07:13:36;15.03;;;14.23;;
7587;SDS011;3835;48.850;8.938;2022-10-17T07:16:03;16.53;;;15.63;;
7587;SDS011;3835;48.850;8.938;2022-10-17T07:18:30;16.33;;;15.53;;
7587;SDS011;3835;48.850;8.938;2022-10-17T07:20:57;14.03;;;13.13;;
7587;SDS011;3835;48.850;8.938;2022-10-17T07:23:26;14.87;;;14.23;;
7587;SDS011;3835;48.850;8.938;2022-10-17T07:25:57;22.27;;;21.27;;
7587;SDS011;3835;48.850;8.938;2022-10-17T07:28:24;19.03;;;17.97;;
7587;SDS011;3835;48.850;8.938;2022-10-17T07:30:51;16.37;;;15.57;;
7587;SDS011;3835;48.850;8.938;2022-10-17T07:33:18;17.00;;;16.00;;
7587;SDS011;3835;48.850;8.938;2022-10-17T07:35:45;14.90;;;14.30;;
7587;SDS011;3835;48.850;8.938;2022-10-17T07:38:11;15.53;;;14.83;;
7587;SDS011;3835;48.850;8.938;2022-10-17T07:40:40;14.37;;;13.57;;
7587;SDS011;3835;48.850;8.938;2022-10-17T07:43:06;12.80;;;12.20;;
7587;SDS011;3835;48.850;8.938;2022-10-17T07:45:33;11.67;;;11.17;;
7587;SDS011;3835;48.850;8.938;2022-10-17T07:48:00;14.97;;;14.30;;
7587;SDS011;3835;48.850;8.938;2022-10-17T07:50:26;14.67;;;13.87;;
7587;SDS011;3835;48.850;8.938;2022-10-17T07:52:53;14.83;;;14.20;;
7587;SDS011;3835;48.850;8.938;2022-10-17T07:55:20;17.63;;;16.80;;
7587;SDS011;3835;48.850;8.938;2022-10-17T07:57:48;18.47;;;17.63;;
7587;SDS011;3835;48.850;8.938;2022-10-17T08:00:15;14.43;;;13.80;;
7587;SDS011;3835;48.850;8.938;2022-10-17T08:02:41;15.43;;;14.30;;
7587;SDS011;3835;48.850;8.938;2022-10-17T08:05:08;12.60;;;12.03;;
7587;SDS011;3835;48.850;8.938;2022-10-17T08:07:35;12.93;;;12.33;;
7587;SDS011;3835;48.850;8.938;2022-10-17T08:10:03;13.40;;;12.80;;
7587;SDS011;3835;48.850;8.938;2022-10-17T08:12:30;13.63;;;13.03;;
7587;SDS011;3835;48.850;8.938;2022-10-17T08:14:59;13.37;;;12.77;;
7587;SDS011;3835;48.850;8.938;2022-10-17T08:17:26;17.60;;;16.20;;
7587;SDS011;3835;48.850;8.938;2022-10-17T08:19:53;16.70;;;15.90;;
7587;SDS011;3835;48.850;8.938;2022-10-17T08:22:20;13.77;;;13.17;;
7587;SDS011;3835;48.850;8.938;2022-10-17T08:24:46;15.07;;;14.37;;
7587;SDS011;3835;48.850;8.938;2022-10-17T08:27:13;14.07;;;13.30;;
7587;SDS011;3835;48.850;8.938;2022-10-17T08:29:45;16.57;;;15.87;;
7587;SDS011;3835;48.850;8.938;2022-10-17T08:32:18;17.40;;;16.50;;
7587;SDS011;3835;48.850;8.938;2022-10-17T08:34:45;13.57;;;12.97;;
7587;SDS011;3835;48.850;8.938;2022-10-17T08:37:12;15.30;;;14.50;;
7587;SDS011;3835;48.850;8.938;2022-10-17T08:39:39;13.87;;;13.17;;
7587;SDS011;3835;48.850;8.938;2022-10-17T08:42:16;11.83;;;10.87;;
7587;SDS011;3835;48.850;8.938;2022-10-17T08:45:11;13.03;;;12.37;;
7587;SDS011;3835;48.850;8.938;2022-10-17T08:47:47;14.60;;;13.47;;
7587;SDS011;3835;48.850;8.938;2022-10-17T08:50:20;14.40;;;13.80;;
7587;SDS011;3835;48.850;8.938;2022-10-17T08:52:54;15.23;;;14.00;;
7587;SDS011;3835;48.850;8.938;2022-10-17T08:55:27;13.73;;;13.13;;
7587;SDS011;3835;48.850;8.938;2022-10-17T08:57:58;12.13;;;11.50;;
7587;SDS011;3835;48.850;8.938;2022-10-17T09:00:25;12.47;;;11.90;;
7587;SDS011;3835;48.850;8.938;2022-10-17T09:03:08;15.00;;;14.23;;
7587;SDS011;3835;48.850;8.938;2022-10-17T09:05:48;12.77;;;12.27;;
7587;SDS011;3835;48.850;8.938;2022-10-17T09:08:21;13.53;;;12.93;;
7587;SDS011;3835;48.850;8.938;2022-10-17T09:10:56;12.23;;;11.73;;
7587;SDS011;3835;48.850;8.938;2022-10-17T09:13:34;12.57;;;12.00;;
7587;SDS011;3835;48.850;8.938;2022-10-17T09:16:19;12.33;;;11.63;;
7587;SDS011;3835;48.850;8.938;2022-10-17T09:19:00;13.27;;;12.40;;
7587;SDS011;3835;48.850;8.938;2022-10-17T09:21:32;12.87;;;12.27;;
7587;SDS011;3835;48.850;8.938;2022-10-17T09:24:09;16.60;;;15.30;;
7587;SDS011;3835;48.850;8.938;2022-10-17T09:26:41;14.60;;;13.90;;
7587;SDS011;3835;48.850;8.938;2022-10-17T09:29:13;12.90;;;12.30;;
7587;SDS011;3835;48.850;8.938;2022-10-17T09:31:44;12.00;;;11.50;;
7587;SDS011;3835;48.850;8.938;2022-10-17T09:34:17;10.77;;;10.27;;
7587;SDS011;3835;48.850;8.938;2022-10-17T09:36:44;12.17;;;11.40;;
7587;SDS011;3835;48.850;8.938;2022-10-17T09:39:12;11.63;;;11.13;;
7587;SDS011;3835;48.850;8.938;2022-10-17T09:41:43;12.63;;;11.83;;
7587;SDS011;3835;48.850;8.938;2022-10-17T09:44:15;12.50;;;11.80;;
7587;SDS011;3835;48.850;8.938;2022-10-17T09:46:48;12.63;;;11.90;;
7587;SDS011;3835;48.850;8.938;2022-10-17T09:49:33;12.07;;;11.10;;
7587;SDS011;3835;48.850;8.938;2022-10-17T09:52:01;12.47;;;11.87;;
7587;SDS011;3835;48.850;8.938;2022-10-17T09:54:32;12.33;;;11.77;;
7587;SDS011;3835;48.850;8.938;2022-10-17T09:57:07;13.97;;;13.27;;
7587;SDS011;3835;48.850;8.938;2022-10-17T09:59:36;11.33;;;10.60;;
7587;SDS011;3835;48.850;8.938;2022-10-17T10:02:08;14.60;;;13.73;;
7587;SDS011;3835;48.850;8.938;2022-10-17T10:04:53;12.87;;;12.07;;
7587;SDS011;3835;48.850;8.938;2022-10-17T10:07:21;10.17;;;9.60;;
7587;SDS011;3835;48.850;8.938;2022-10-17T10:09:48;11.27;;;10.77;;
7587;SDS011;3835;48.850;8.938;2022-10-17T10:12:16;10.83;;;10.33;;
7587;SDS011;3835;48.850;8.938;2022-10-17T10:14:45;13.37;;;12.23;;
7587;SDS011;3835;48.850;8.938;2022-10-17T10:17:26;12.13;;;11.53;;
7587;SDS011;3835;48.850;8.938;2022-10-17T10:20:25;13.70;;;13.00;;
7587;SDS011;3835;48.850;8.938;2022-10-17T10:23:05;14.53;;;13.73;;
7587;SDS011;3835;48.850;8.938;2022-10-17T10:25:51;10.53;;;10.13;;
7587;SDS011;3835;48.850;8.938;2022-10-17T10:28:21;11.13;;;10.53;;
7587;SDS011;3835;48.850;8.938;2022-10-17T10:30:51;14.10;;;13.50;;
7587;SDS011;3835;48.850;8.938;2022-10-17T10:33:19;11.63;;;11.03;;
7587;SDS011;3835;48.850;8.938;2022-10-17T10:35:53;10.93;;;10.50;;
7587;SDS011;3835;48.850;8.938;2022-10-17T10:38:22;11.43;;;10.93;;
7587;SDS011;3835;48.850;8.938;2022-10-17T10:40:50;12.07;;;11.47;;
7587;SDS011;3835;48.850;8.938;2022-10-17T10:43:20;11.17;;;10.67;;
7587;SDS011;3835;48.850;8.938;2022-10-17T10:45:50;11.83;;;11.20;;
7587;SDS011;3835;48.850;8.938;2022-10-17T10:48:18;11.67;;;11.17;;
7587;SDS011;3835;48.850;8.938;2022-10-17T10:50:47;10.67;;;10.13;;
7587;SDS011;3835;48.850;8.938;2022-10-17T10:53:22;11.10;;;10.60;;
7587;SDS011;3835;48.850;8.938;2022-10-17T10:55:56;10.90;;;10.30;;
7587;SDS011;3835;48.850;8.938;2022-10-17T10:58:28;11.07;;;10.57;;
7587;SDS011;3835;48.850;8.938;2022-10-17T11:01:04;11.37;;;10.77;;
7587;SDS011;3835;48.850;8.938;2022-10-17T11:03:37;10.97;;;10.47;;
7587;SDS011;3835;48.850;8.938;2022-10-17T11:06:10;10.70;;;10.20;;
7587;SDS011;3835;48.850;8.938;2022-10-17T11:08:43;9.90;;;9.30;;
7587;SDS011;3835;48.850;8.938;2022-10-17T11:11:16;11.00;;;10.50;;
7587;SDS011;3835;48.850;8.938;2022-10-17T11:13:52;12.10;;;11.20;;
7587;SDS011;3835;48.850;8.938;2022-10-17T11:16:28;10.37;;;9.87;;
7587;SDS011;3835;48.850;8.938;2022-10-17T11:19:03;10.03;;;9.50;;
7587;SDS011;3835;48.850;8.938;2022-10-17T11:21:39;11.40;;;10.80;;
7587;SDS011;3835;48.850;8.938;2022-10-17T11:24:14;10.30;;;9.90;;
7587;SDS011;3835;48.850;8.938;2022-10-17T11:26:48;11.20;;;10.70;;
7587;SDS011;3835;48.850;8.938;2022-10-17T11:29:26;12.10;;;11.30;;
7587;SDS011;3835;48.850;8.938;2022-10-17T11:31:55;13.27;;;12.67;;
7587;SDS011;3835;48.850;8.938;2022-10-17T11:34:25;10.97;;;10.27;;
7587;SDS011;3835;48.850;8.938;2022-10-17T11:36:55;11.33;;;10.83;;
7587;SDS011;3835;48.850;8.938;2022-10-17T11:39:28;11.00;;;10.40;;
7587;SDS011;3835;48.850;8.938;2022-10-17T11:41:59;11.00;;;10.50;;
7587;SDS011;3835;48.850;8.938;2022-10-17T11:44:31;10.07;;;9.57;;
7587;SDS011;3835;48.850;8.938;2022-10-17T11:47:01;9.70;;;9.20;;
7587;SDS011;3835;48.850;8.938;2022-10-17T11:49:33;11.07;;;10.57;;
7587;SDS011;3835;48.850;8.938;2022-10-17T11:52:06;10.43;;;9.83;;
7587;SDS011;3835;48.850;8.938;2022-10-17T11:54:47;10.63;;;10.03;;
7587;SDS011;3835;48.850;8.938;2022-10-17T11:57:21;10.60;;;10.07;;
7587;SDS011;3835;48.850;8.938;2022-10-17T12:00:03;10.63;;;10.13;;
7587;SDS011;3835;48.850;8.938;2022-10-17T12:02:44;10.80;;;10.20;;
7587;SDS011;3835;48.850;8.938;2022-10-17T12:05:18;10.40;;;9.90;;
7587;SDS011;3835;48.850;8.938;2022-10-17T12:07:52;11.17;;;10.57;;
7587;SDS011;3835;48.850;8.938;2022-10-17T12:10:30;11.83;;;11.20;;
7587;SDS011;3835;48.850;8.938;2022-10-17T12:19:22;11.53;;;11.03;;
7587;SDS011;3835;48.850;8.938;2022-10-17T12:21:57;11.23;;;10.73;;
7587;SDS011;3835;48.850;8.938;2022-10-17T12:24:33;14.10;;;13.50;;
7587;SDS011;3835;48.850;8.938;2022-10-17T12:32:56;11.40;;;10.80;;
7587;SDS011;3835;48.850;8.938;2022-10-17T12:35:28;10.57;;;10.07;;
7587;SDS011;3835;48.850;8.938;2022-10-17T12:41:00;10.13;;;9.53;;
7587;SDS011;3835;48.850;8.938;2022-10-17T12:49:39;10.57;;;10.07;;
7587;SDS011;3835;48.850;8.938;2022-10-17T12:52:20;11.27;;;10.67;;
7587;SDS011;3835;48.850;8.938;2022-10-17T12:54:50;11.13;;;10.33;;
7587;SDS011;3835;48.850;8.938;2022-10-17T12:57:37;11.00;;;10.10;;
7587;SDS011;3835;48.850;8.938;2022-10-17T13:00:13;10.30;;;9.80;;
7587;SDS011;3835;48.850;8.938;2022-10-17T13:02:43;10.97;;;10.43;;
7587;SDS011;3835;48.850;8.938;2022-10-17T13:05:13;10.67;;;10.27;;
7587;SDS011;3835;48.850;8.938;2022-10-17T13:07:43;11.37;;;10.77;;
7587;SDS011;3835;48.850;8.938;2022-10-17T13:10:21;12.43;;;11.83;;
7587;SDS011;3835;48.850;8.938;2022-10-17T13:12:51;11.03;;;10.43;;
7587;SDS011;3835;48.850;8.938;2022-10-17T13:15:26;10.70;;;10.13;;
7587;SDS011;3835;48.850;8.938;2022-10-17T13:17:54;11.10;;;10.50;;
7587;SDS011;3835;48.850;8.938;2022-10-17T13:20:23;10.13;;;9.63;;
7587;SDS011;3835;48.850;8.938;2022-10-17T13:22:52;10.53;;;10.03;;
7587;SDS011;3835;48.850;8.938;2022-10-17T13:25:20;10.73;;;10.23;;
7587;SDS011;3835;48.850;8.938;2022-10-17T13:27:48;11.00;;;10.40;;
7587;SDS011;3835;48.850;8.938;2022-10-17T13:30:22;11.07;;;10.57;;
7587;SDS011;3835;48.850;8.938;2022-10-17T13:32:52;11.70;;;11.10;;
7587;SDS011;3835;48.850;8.938;2022-10-17T13:35:24;10.90;;;10.40;;
7587;SDS011;3835;48.850;8.938;2022-10-17T13:37:53;11.20;;;10.67;;
7587;SDS011;3835;48.850;8.938;2022-10-17T13:40:22;11.77;;;10.93;;
7587;SDS011;3835;48.850;8.938;2022-10-17T13:42:50;11.03;;;10.33;;
7587;SDS011;3835;48.850;8.938;2022-10-17T13:45:19;9.80;;;9.33;;
7587;SDS011;3835;48.850;8.938;2022-10-17T13:47:53;11.70;;;10.93;;
7587;SDS011;3835;48.850;8.938;2022-10-17T13:50:23;10.77;;;10.07;;
7587;SDS011;3835;48.850;8.938;2022-10-17T13:53:06;10.83;;;10.27;;
7587;SDS011;3835;48.850;8.938;2022-10-17T13:55:48;10.63;;;10.03;;
7587;SDS011;3835;48.850;8.938;2022-10-17T13:58:19;10.17;;;9.67;;
7587;SDS011;3835;48.850;8.938;2022-10-17T14:00:46;11.20;;;10.70;;
7587;SDS011;3835;48.850;8.938;2022-10-17T14:03:16;10.70;;;10.20;;
7587;SDS011;3835;48.850;8.938;2022-10-17T14:05:59;11.40;;;10.80;;
7587;SDS011;3835;48.850;8.938;2022-10-17T14:08:38;10.80;;;10.20;;
7587;SDS011;3835;48.850;8.938;2022-10-17T14:11:15;10.70;;;9.70;;
7587;SDS011;3835;48.850;8.938;2022-10-17T14:13:48;10.27;;;9.77;;
7587;SDS011;3835;48.850;8.938;2022-10-17T14:16:17;11.83;;;11.23;;
7587;SDS011;3835;48.850;8.938;2022-10-17T14:18:46;11.17;;;10.57;;
7587;SDS011;3835;48.850;8.938;2022-10-17T14:21:17;10.70;;;10.20;;
7587;SDS011;3835;48.850;8.938;2022-10-17T14:23:45;11.33;;;10.73;;
7587;SDS011;3835;48.850;8.938;2022-10-17T14:26:13;11.73;;;10.90;;
7587;SDS011;3835;48.850;8.938;2022-10-17T14:28:43;12.00;;;11.20;;
7587;SDS011;3835;48.850;8.938;2022-10-17T14:31:15;11.10;;;10.50;;
7587;SDS011;3835;48.850;8.938;2022-10-17T14:33:51;11.70;;;11.20;;
7587;SDS011;3835;48.850;8.938;2022-10-17T14:36:19;10.80;;;10.27;;
7587;SDS011;3835;48.850;8.938;2022-10-17T14:38:55;10.83;;;10.20;;
7587;SDS011;3835;48.850;8.938;2022-10-17T14:41:23;10.30;;;9.90;;
7587;SDS011;3835;48.850;8.938;2022-10-17T14:43:53;11.57;;;10.87;;
7587;SDS011;3835;48.850;8.938;2022-10-17T14:46:23;10.70;;;10.10;;
7587;SDS011;3835;48.850;8.938;2022-10-17T14:48:56;11.40;;;10.80;;
7587;SDS011;3835;48.850;8.938;2022-10-17T14:51:28;11.43;;;10.90;;
7587;SDS011;3835;48.850;8.938;2022-10-17T14:53:58;10.23;;;9.73;;
7587;SDS011;3835;48.850;8.938;2022-10-17T14:56:32;11.73;;;11.23;;
7587;SDS011;3835;48.850;8.938;2022-10-17T14:59:01;11.37;;;10.67;;
7587;SDS011;3835;48.850;8.938;2022-10-17T15:01:29;12.87;;;12.27;;
7587;SDS011;3835;48.850;8.938;2022-10-17T15:03:58;13.83;;;13.07;;
7587;SDS011;3835;48.850;8.938;2022-10-17T15:06:26;13.10;;;12.50;;
7587;SDS011;3835;48.850;8.938;2022-10-17T15:08:53;11.50;;;11.00;;
7587;SDS011;3835;48.850;8.938;2022-10-17T15:11:20;11.43;;;10.77;;
7587;SDS011;3835;48.850;8.938;2022-10-17T15:13:47;11.87;;;11.17;;
7587;SDS011;3835;48.850;8.938;2022-10-17T15:16:14;11.10;;;10.33;;
7587;SDS011;3835;48.850;8.938;2022-10-17T15:18:44;12.20;;;11.70;;
7587;SDS011;3835;48.850;8.938;2022-10-17T15:21:13;10.67;;;10.20;;
7587;SDS011;3835;48.850;8.938;2022-10-17T15:23:43;11.50;;;10.80;;
7587;SDS011;3835;48.850;8.938;2022-10-17T15:26:12;11.17;;;10.67;;
7587;SDS011;3835;48.850;8.938;2022-10-17T15:28:40;11.43;;;10.73;;
7587;SDS011;3835;48.850;8.938;2022-10-17T15:31:08;10.60;;;10.07;;
7587;SDS011;3835;48.850;8.938;2022-10-17T15:33:37;10.77;;;10.27;;